CheckWX is a tool to help pilots better visualize weather data.  It is not intended as a substitute for an official pre-flight weather briefing.

22:44:23 UTC

KHUM TAF
Houma-Terrebonne Airport
Houma, Louisiana, USA
KHUM 061756Z 0618/0718 26007KT P6SM VCSH SCT020 BKN035 FM070200 00000KT P6SM SCT010 OVC015 FM071400 01006KT 5SM BR OVC008 FM071700 01008KT P6SM OVC015

Dec-6@
18:00 UTC

Dec-6 @ 18:00 UTC

Dec-7@
02:00 UTC

Dec-7 @ 02:00 UTC

KHUM 061756Z 0618/0718 26007KT P6SM VCSH SCT020 BKN035
Wind
  • 260° at 7 KTS
Cloud Levels
  • Scattered at 2,000' AGL
  • Broken at 3,500' AGL

Dec-7@
02:00 UTC

Dec-7 @ 02:00 UTC

Dec-7@
14:00 UTC

Dec-7 @ 14:00 UTC

FM070200 00000KT P6SM SCT010 OVC015

From

From Standard forecast or significant change

Cloud Levels
  • Scattered at 1,000' AGL
  • Overcast at 1,500' AGL

Dec-7@
14:00 UTC

Dec-7 @ 14:00 UTC

Dec-7@
17:00 UTC

Dec-7 @ 17:00 UTC

FM071400 01006KT 5SM BR OVC008

From

From Standard forecast or significant change

Wind
  • 010° at 6 KTS
Conditions
Mist
Cloud Levels
  • Overcast at 800' AGL

Dec-7@
17:00 UTC

Dec-7 @ 17:00 UTC

Dec-7@
18:00 UTC

Dec-7 @ 18:00 UTC

FM071700 01008KT P6SM OVC015

From

From Standard forecast or significant change

Wind
  • 010° at 8 KTS
Cloud Levels
  • Overcast at 1,500' AGL